createdAt,value
2022-10-31T00:01:00.695Z,4.28
2022-10-31T00:03:27.390Z,4.55
2022-10-31T00:05:53.778Z,4.70
2022-10-31T00:08:20.151Z,4.95
2022-10-31T00:10:46.970Z,5.25
2022-10-31T00:13:14.526Z,4.03
2022-10-31T00:15:40.933Z,3.38
2022-10-31T00:18:08.153Z,3.45
2022-10-31T00:20:34.656Z,3.05
2022-10-31T00:23:01.667Z,3.42
2022-10-31T00:25:28.850Z,3.05
2022-10-31T00:27:55.258Z,3.45
2022-10-31T00:30:22.101Z,3.20
2022-10-31T00:32:48.598Z,2.55
2022-10-31T00:35:14.960Z,4.15
2022-10-31T00:37:42.667Z,3.03
2022-10-31T00:40:09.393Z,2.90
2022-10-31T00:42:35.831Z,2.38
2022-10-31T00:45:02.225Z,3.13
2022-10-31T00:47:29.272Z,2.80
2022-10-31T00:49:55.574Z,2.90
2022-10-31T00:52:21.872Z,3.58
2022-10-31T00:54:48.234Z,3.08
2022-10-31T00:57:14.598Z,2.70
2022-10-31T00:59:41.075Z,3.38
2022-10-31T01:02:07.537Z,3.10
2022-10-31T01:04:34.158Z,2.92
2022-10-31T01:07:00.545Z,3.03
2022-10-31T01:09:27.084Z,3.53
2022-10-31T01:11:53.407Z,3.38
2022-10-31T01:14:19.766Z,3.28
2022-10-31T01:16:46.181Z,3.05
2022-10-31T01:19:14.232Z,3.17
2022-10-31T01:21:40.741Z,3.63
2022-10-31T01:24:07.267Z,2.53
2022-10-31T01:26:36.821Z,3.35
2022-10-31T01:29:07.410Z,3.03
2022-10-31T01:31:36.256Z,2.63
2022-10-31T01:34:03.362Z,3.38
2022-10-31T01:36:29.744Z,3.63
2022-10-31T01:38:57.754Z,2.47
2022-10-31T01:41:25.486Z,2.58
2022-10-31T01:43:56.188Z,2.88
2022-10-31T01:46:28.275Z,2.53
2022-10-31T01:48:55.051Z,3.15
2022-10-31T01:51:22.666Z,3.85
2022-10-31T01:53:50.367Z,2.92
2022-10-31T01:56:17.466Z,3.45
2022-10-31T01:58:44.807Z,2.95
2022-10-31T02:01:11.556Z,3.55
2022-10-31T02:03:38.350Z,3.45
2022-10-31T02:06:06.061Z,2.80
2022-10-31T02:08:34.284Z,2.92
2022-10-31T02:11:01.775Z,2.75
2022-10-31T02:13:29.060Z,2.70
2022-10-31T02:15:57.247Z,3.40
2022-10-31T02:18:24.391Z,2.92
2022-10-31T02:21:04.858Z,3.20
2022-10-31T02:23:31.285Z,3.13
2022-10-31T02:26:19.713Z,2.63
2022-10-31T02:29:11.392Z,2.58
2022-10-31T02:31:44.805Z,2.30
2022-10-31T02:34:23.169Z,2.88
2022-10-31T02:37:00.193Z,2.55
2022-10-31T02:39:26.854Z,3.05
2022-10-31T02:42:12.209Z,2.72
2022-10-31T02:44:50.931Z,2.63
2022-10-31T02:47:18.251Z,3.00
2022-10-31T02:49:47.662Z,2.83
2022-10-31T02:52:14.893Z,2.65
2022-10-31T02:54:41.576Z,3.13
2022-10-31T02:57:09.043Z,2.95
2022-10-31T02:59:37.129Z,2.85
2022-10-31T03:02:25.499Z,2.88
2022-10-31T03:05:01.129Z,3.08
2022-10-31T03:07:36.872Z,2.65
2022-10-31T03:10:15.213Z,2.58
2022-10-31T03:12:48.930Z,3.05
2022-10-31T03:15:26.446Z,2.78
2022-10-31T03:18:02.332Z,2.42
2022-10-31T03:20:34.295Z,2.85
2022-10-31T03:23:01.844Z,2.33
2022-10-31T03:25:30.424Z,2.40
2022-10-31T03:27:59.214Z,2.58
2022-10-31T03:30:26.141Z,2.75
2022-10-31T03:32:59.886Z,2.53
2022-10-31T03:35:28.328Z,2.42
2022-10-31T03:37:55.763Z,2.53
2022-10-31T03:40:24.345Z,2.63
2022-10-31T03:42:54.218Z,2.45
2022-10-31T03:45:26.165Z,2.67
2022-10-31T03:47:53.471Z,2.25
2022-10-31T03:50:20.623Z,2.45
2022-10-31T03:53:10.294Z,2.20
2022-10-31T03:55:48.288Z,2.58
2022-10-31T03:58:21.514Z,2.70
2022-10-31T04:00:48.933Z,2.60
2022-10-31T04:03:22.199Z,2.47
2022-10-31T04:05:51.309Z,2.28
2022-10-31T04:08:21.007Z,2.42
2022-10-31T04:10:49.109Z,2.50
2022-10-31T04:13:17.148Z,2.47
2022-10-31T04:15:50.753Z,2.80
2022-10-31T04:18:18.012Z,2.50
2022-10-31T04:20:44.494Z,3.25
2022-10-31T04:23:19.217Z,2.60
2022-10-31T04:25:45.637Z,1.90
2022-10-31T04:28:12.315Z,2.15
2022-10-31T04:30:38.698Z,2.00
2022-10-31T04:33:05.031Z,2.63
2022-10-31T04:35:31.908Z,2.65
2022-10-31T04:37:58.226Z,2.25
2022-10-31T04:40:24.637Z,2.50
2022-10-31T04:43:18.122Z,2.50
2022-10-31T04:45:45.439Z,2.58
2022-10-31T04:48:13.170Z,1.95
2022-10-31T04:50:41.812Z,1.88
2022-10-31T04:53:08.692Z,2.45
2022-10-31T04:55:44.098Z,2.60
2022-10-31T04:58:19.809Z,2.47
2022-10-31T05:00:46.280Z,2.58
2022-10-31T05:03:13.944Z,2.55
2022-10-31T05:05:40.359Z,2.65
2022-10-31T05:08:06.923Z,2.03
2022-10-31T05:10:33.282Z,2.47
2022-10-31T05:13:02.483Z,2.33
2022-10-31T05:15:48.208Z,2.20
2022-10-31T05:18:33.262Z,2.53
2022-10-31T05:21:22.323Z,1.90
2022-10-31T05:23:53.090Z,2.10
2022-10-31T05:26:20.916Z,2.05
2022-10-31T05:28:47.726Z,2.67
2022-10-31T05:31:14.090Z,2.10
2022-10-31T05:33:41.943Z,2.10
2022-10-31T05:36:40.369Z,1.85
2022-10-31T05:39:15.706Z,1.95
2022-10-31T05:41:46.979Z,2.10
2022-10-31T05:44:18.717Z,2.33
2022-10-31T05:46:55.051Z,1.85
2022-10-31T05:49:41.336Z,2.10
2022-10-31T05:52:10.226Z,2.15
2022-10-31T05:54:43.462Z,2.10
2022-10-31T05:57:09.911Z,2.00
2022-10-31T05:59:37.080Z,2.08
2022-10-31T06:02:03.688Z,1.80
2022-10-31T06:04:52.844Z,2.08
2022-10-31T06:07:19.276Z,1.50
2022-10-31T06:09:45.586Z,2.25
2022-10-31T06:12:11.986Z,1.70
2022-10-31T06:14:56.826Z,1.77
2022-10-31T06:17:23.169Z,1.58
2022-10-31T06:22:20.452Z,1.67
2022-10-31T06:24:46.976Z,1.65
2022-10-31T06:27:28.560Z,1.92
2022-10-31T06:29:55.703Z,1.27
2022-10-31T06:32:28.709Z,1.38
2022-10-31T06:34:55.102Z,1.88
2022-10-31T06:37:22.632Z,2.40
2022-10-31T06:39:50.097Z,1.90
2022-10-31T06:42:17.183Z,1.80
2022-10-31T06:44:44.064Z,1.90
2022-10-31T06:47:29.242Z,1.98
2022-10-31T06:50:03.747Z,1.60
2022-10-31T06:52:30.110Z,2.03
2022-10-31T06:54:56.689Z,2.00
2022-10-31T06:57:23.227Z,2.38
2022-10-31T06:59:49.791Z,1.70
2022-10-31T07:02:32.496Z,1.73
2022-10-31T07:04:58.913Z,1.98
2022-10-31T07:07:25.322Z,1.67
2022-10-31T07:09:51.847Z,2.10
2022-10-31T07:12:23.052Z,1.98
2022-10-31T07:14:56.668Z,1.95
2022-10-31T07:17:28.825Z,2.50
2022-10-31T07:19:57.737Z,1.85
2022-10-31T07:22:24.044Z,1.70
2022-10-31T07:24:50.466Z,2.67
2022-10-31T07:27:43.594Z,1.75
2022-10-31T07:30:13.234Z,2.33
2022-10-31T07:32:40.426Z,2.10
2022-10-31T07:35:08.786Z,2.45
2022-10-31T07:37:46.065Z,1.83
2022-10-31T07:40:12.957Z,1.50
2022-10-31T07:42:40.370Z,2.10
2022-10-31T07:45:11.333Z,1.80
2022-10-31T07:47:56.307Z,1.80
2022-10-31T07:50:41.380Z,1.63
2022-10-31T07:53:16.714Z,1.88
2022-10-31T07:56:09.264Z,2.38
2022-10-31T07:58:35.636Z,1.45
2022-10-31T08:01:02.123Z,1.50
2022-10-31T08:03:38.452Z,2.13
2022-10-31T08:06:10.675Z,1.92
2022-10-31T08:09:09.244Z,1.75
2022-10-31T08:11:35.772Z,1.90
2022-10-31T08:14:02.702Z,1.83
2022-10-31T08:16:29.086Z,2.08
2022-10-31T08:21:28.390Z,1.85
2022-10-31T08:23:54.938Z,1.92
2022-10-31T08:26:24.192Z,2.15
2022-10-31T08:28:52.415Z,2.55
2022-10-31T08:31:20.604Z,2.45
2022-10-31T08:33:46.968Z,2.45
2022-10-31T08:36:19.123Z,2.05
2022-10-31T08:39:04.148Z,2.30
2022-10-31T08:41:31.154Z,2.30
2022-10-31T08:43:59.173Z,2.33
2022-10-31T08:46:25.549Z,2.60
2022-10-31T08:48:51.924Z,1.85
2022-10-31T08:51:19.476Z,2.25
2022-10-31T08:53:48.070Z,2.38
2022-10-31T08:56:36.997Z,1.92
2022-10-31T08:59:10.241Z,2.50
2022-10-31T09:01:55.243Z,1.58
2022-10-31T09:04:21.758Z,2.00
2022-10-31T09:07:19.703Z,1.75
2022-10-31T09:09:34.758Z,2.25
2022-10-31T09:12:01.174Z,1.67
2022-10-31T09:14:46.065Z,2.05
2022-10-31T09:17:23.722Z,2.47
2022-10-31T09:20:09.163Z,2.25
2022-10-31T09:22:35.982Z,2.40
2022-10-31T09:25:02.301Z,1.92
2022-10-31T09:27:29.087Z,2.10
2022-10-31T09:29:56.971Z,2.92
2022-10-31T09:32:23.402Z,2.50
2022-10-31T09:34:50.425Z,2.33
2022-10-31T09:37:20.247Z,2.35
2022-10-31T09:39:46.673Z,2.53
2022-10-31T09:42:48.208Z,2.58
2022-10-31T09:45:23.484Z,2.10
2022-10-31T09:47:49.973Z,2.53
2022-10-31T09:50:43.423Z,2.38
2022-10-31T09:53:45.838Z,2.78
2022-10-31T09:56:18.856Z,2.30
2022-10-31T09:58:50.441Z,2.45
2022-10-31T10:01:24.660Z,2.97
2022-10-31T10:03:54.251Z,2.35
2022-10-31T10:06:53.162Z,2.25
2022-10-31T10:09:45.562Z,2.42
2022-10-31T10:12:49.540Z,2.20
2022-10-31T10:15:21.897Z,2.47
2022-10-31T10:18:06.320Z,2.83
2022-10-31T10:20:35.951Z,1.92
2022-10-31T10:23:20.309Z,2.45
2022-10-31T10:25:49.730Z,2.67
2022-10-31T10:28:27.261Z,2.55
2022-10-31T10:30:55.630Z,2.50
2022-10-31T10:33:24.825Z,2.60
2022-10-31T10:35:56.383Z,2.67
2022-10-31T10:38:41.529Z,2.58
2022-10-31T10:41:14.054Z,2.50
2022-10-31T10:43:40.416Z,2.92
2022-10-31T10:46:28.523Z,1.75
2022-10-31T10:49:00.133Z,2.38
2022-10-31T10:52:02.685Z,2.17
2022-10-31T10:54:33.599Z,2.50
2022-10-31T10:57:19.038Z,2.40
2022-10-31T10:59:46.331Z,2.47
2022-10-31T11:02:17.713Z,2.53
2022-10-31T11:04:44.276Z,2.63
2022-10-31T11:07:11.730Z,2.28
2022-10-31T11:09:38.738Z,2.38
2022-10-31T11:12:09.782Z,2.15
2022-10-31T11:14:47.485Z,2.55
2022-10-31T11:17:31.413Z,2.35
2022-10-31T11:20:16.325Z,1.92
2022-10-31T11:22:46.155Z,2.58
2022-10-31T11:25:21.167Z,2.70
2022-10-31T11:27:47.585Z,2.55
2022-10-31T11:30:15.100Z,2.20
2022-10-31T11:32:45.941Z,2.00
2022-10-31T11:37:42.699Z,2.42
2022-10-31T11:40:16.929Z,2.25
2022-10-31T11:42:43.726Z,2.22
2022-10-31T11:45:17.774Z,2.70
2022-10-31T11:47:47.565Z,2.67
2022-10-31T11:50:20.407Z,2.47
2022-10-31T11:52:47.077Z,2.20
2022-10-31T11:55:13.465Z,2.17
2022-10-31T11:57:50.225Z,2.35
2022-10-31T12:00:36.937Z,2.80
2022-10-31T12:03:21.997Z,2.40
2022-10-31T12:05:50.163Z,1.80
2022-10-31T12:08:16.537Z,1.98
2022-10-31T12:10:52.222Z,2.53
2022-10-31T12:13:33.758Z,2.20
2022-10-31T12:16:03.283Z,2.67
2022-10-31T12:18:38.040Z,2.38
2022-10-31T12:21:18.702Z,2.55
2022-10-31T12:24:03.494Z,2.53
2022-10-31T12:26:48.900Z,2.55
2022-10-31T12:29:15.266Z,2.45
2022-10-31T12:31:54.762Z,2.95
2022-10-31T12:34:47.787Z,2.03
2022-10-31T12:37:15.314Z,1.88
2022-10-31T12:39:55.896Z,2.35
2022-10-31T12:42:41.180Z,2.83
2022-10-31T12:45:07.506Z,2.40
2022-10-31T12:47:52.690Z,1.92
2022-10-31T12:50:23.599Z,1.92
2022-10-31T12:53:16.951Z,2.00
2022-10-31T12:55:43.472Z,2.58
2022-10-31T12:58:22.644Z,2.53
2022-10-31T13:00:50.695Z,2.75
2022-10-31T13:03:20.129Z,2.42
2022-10-31T13:05:49.307Z,2.70
2022-10-31T13:08:15.609Z,2.30
2022-10-31T13:10:50.895Z,2.83
2022-10-31T13:13:20.622Z,2.88
2022-10-31T13:15:49.060Z,2.80
2022-10-31T13:18:20.708Z,2.38
2022-10-31T13:20:53.096Z,2.65
2022-10-31T13:23:49.911Z,2.13
2022-10-31T13:26:16.964Z,2.50
2022-10-31T13:28:46.396Z,3.03
2022-10-31T13:31:12.893Z,2.90
2022-10-31T13:33:42.288Z,2.50
2022-10-31T13:36:17.692Z,3.15
2022-10-31T13:38:49.754Z,3.53
2022-10-31T13:41:34.968Z,2.75
2022-10-31T13:44:19.416Z,2.78
2022-10-31T13:46:46.402Z,2.65
2022-10-31T13:49:31.165Z,3.05
2022-10-31T13:52:06.796Z,3.05
2022-10-31T13:54:34.404Z,3.15
2022-10-31T13:57:01.221Z,2.65
2022-10-31T13:59:29.030Z,3.08
2022-10-31T14:02:01.188Z,3.55
2022-10-31T14:04:30.785Z,3.35
2022-10-31T14:06:58.294Z,2.78
2022-10-31T14:09:24.675Z,3.28
2022-10-31T14:11:51.300Z,3.13
2022-10-31T14:14:18.631Z,4.18
2022-10-31T14:16:46.016Z,3.15
2022-10-31T14:19:17.586Z,3.47
2022-10-31T14:21:45.297Z,3.92
2022-10-31T14:24:23.599Z,3.08
2022-10-31T14:26:54.794Z,3.42
2022-10-31T14:29:26.609Z,3.65
2022-10-31T14:31:54.579Z,3.45
2022-10-31T14:34:23.759Z,3.80
2022-10-31T14:36:57.034Z,3.53
2022-10-31T14:39:33.454Z,3.33
2022-10-31T14:42:11.755Z,3.53
2022-10-31T14:44:44.124Z,4.43
2022-10-31T14:47:16.346Z,3.83
2022-10-31T14:49:45.473Z,3.60
2022-10-31T14:52:14.282Z,3.63
2022-10-31T14:54:42.279Z,3.25
2022-10-31T14:57:15.224Z,3.33
2022-10-31T14:59:46.184Z,3.22
2022-10-31T15:04:39.402Z,4.32
2022-10-31T15:07:13.652Z,3.63
2022-10-31T15:09:41.849Z,3.60
2022-10-31T15:12:23.376Z,4.82
2022-10-31T15:14:49.885Z,3.75
2022-10-31T15:17:16.505Z,4.43
2022-10-31T15:19:43.229Z,4.15
2022-10-31T15:22:15.098Z,3.90
2022-10-31T15:24:42.575Z,3.95
2022-10-31T15:27:16.337Z,4.47
2022-10-31T15:30:02.995Z,3.95
2022-10-31T15:32:30.221Z,4.50
2022-10-31T15:34:57.440Z,3.30
2022-10-31T15:37:25.833Z,3.55
2022-10-31T15:39:52.524Z,4.45
2022-10-31T15:42:23.731Z,4.22
2022-10-31T15:44:54.984Z,4.57
2022-10-31T15:47:22.593Z,3.90
2022-10-31T15:49:51.171Z,4.32
2022-10-31T15:52:35.419Z,4.13
2022-10-31T15:55:03.977Z,4.38
2022-10-31T15:57:31.261Z,4.07
2022-10-31T15:59:57.761Z,3.30
2022-10-31T16:02:25.758Z,4.15
2022-10-31T16:04:56.628Z,3.58
2022-10-31T16:07:23.886Z,4.03
2022-10-31T16:09:51.620Z,3.80
2022-10-31T16:12:21.523Z,3.75
2022-10-31T16:17:17.242Z,4.32
2022-10-31T16:19:49.285Z,4.95
2022-10-31T16:22:20.806Z,4.32
2022-10-31T16:24:47.505Z,4.38
2022-10-31T16:27:24.304Z,3.83
2022-10-31T16:29:50.611Z,3.90
2022-10-31T16:32:25.739Z,4.60
2022-10-31T16:35:02.504Z,3.50
2022-10-31T16:37:29.508Z,4.38
2022-10-31T16:39:55.826Z,4.00
2022-10-31T16:42:22.386Z,5.32
2022-10-31T16:44:49.110Z,3.92
2022-10-31T16:47:16.462Z,5.22
2022-10-31T16:49:43.502Z,4.72
2022-10-31T16:52:10.034Z,5.00
2022-10-31T16:54:36.440Z,4.22
2022-10-31T16:57:03.998Z,4.05
2022-10-31T16:59:30.927Z,4.57
2022-10-31T17:01:57.442Z,3.75
2022-10-31T17:04:24.427Z,4.20
2022-10-31T17:06:50.820Z,4.05
2022-10-31T17:09:17.300Z,4.45
2022-10-31T17:11:49.758Z,4.28
2022-10-31T17:14:16.816Z,4.22
2022-10-31T17:16:43.177Z,4.10
2022-10-31T17:19:12.861Z,4.68
2022-10-31T17:21:39.761Z,4.65
2022-10-31T17:24:06.510Z,5.63
2022-10-31T17:26:32.858Z,4.40
2022-10-31T17:29:01.969Z,4.20
2022-10-31T17:31:29.712Z,5.40
2022-10-31T17:34:02.233Z,4.70
2022-10-31T17:36:30.144Z,4.22
2022-10-31T17:38:56.508Z,5.68
2022-10-31T17:41:22.886Z,4.55
2022-10-31T17:43:49.255Z,4.70
2022-10-31T17:46:15.599Z,5.82
2022-10-31T17:48:42.051Z,4.53
2022-10-31T17:51:08.587Z,4.65
2022-10-31T17:53:35.078Z,5.15
2022-10-31T17:56:05.830Z,5.03
2022-10-31T17:58:32.325Z,5.07
2022-10-31T18:00:59.123Z,5.05
2022-10-31T18:03:26.022Z,4.95
2022-10-31T18:05:56.126Z,5.30
2022-10-31T18:08:26.819Z,5.50
2022-10-31T18:10:53.172Z,5.20
2022-10-31T18:13:20.073Z,3.88
2022-10-31T18:15:46.417Z,4.78
2022-10-31T18:18:12.801Z,4.95
2022-10-31T18:20:39.365Z,4.45
2022-10-31T18:23:05.792Z,4.13
2022-10-31T18:25:32.484Z,4.13
2022-10-31T18:27:59.211Z,3.63
2022-10-31T18:30:25.762Z,3.50
2022-10-31T18:32:52.176Z,4.78
2022-10-31T18:35:18.831Z,5.50
2022-10-31T18:37:45.203Z,4.82
2022-10-31T18:40:11.605Z,4.72
2022-10-31T18:42:38.618Z,3.95
2022-10-31T18:45:11.446Z,4.05
2022-10-31T18:47:53.122Z,4.75
2022-10-31T18:50:19.782Z,4.50
2022-10-31T18:52:46.118Z,5.32
2022-10-31T18:55:12.520Z,5.00
2022-10-31T18:57:38.873Z,3.08
2022-10-31T19:00:05.660Z,4.35
2022-10-31T19:02:32.081Z,4.60
2022-10-31T19:04:58.475Z,4.57
2022-10-31T19:07:24.810Z,4.68
2022-10-31T19:09:51.141Z,4.80
2022-10-31T19:12:17.531Z,4.75
2022-10-31T19:14:43.921Z,3.97
2022-10-31T19:17:10.507Z,4.60
2022-10-31T19:19:38.342Z,4.82
2022-10-31T19:22:04.745Z,4.82
2022-10-31T19:24:31.101Z,4.95
2022-10-31T19:26:58.405Z,5.07
2022-10-31T19:29:24.794Z,4.85
2022-10-31T19:31:51.133Z,5.22
2022-10-31T19:34:17.531Z,4.13
2022-10-31T19:36:44.345Z,3.63
2022-10-31T19:39:11.106Z,4.90
2022-10-31T19:41:37.561Z,4.78
2022-10-31T19:44:04.040Z,4.38
2022-10-31T19:49:16.725Z,4.72
2022-10-31T19:51:43.104Z,4.75
2022-10-31T19:54:10.461Z,4.63
2022-10-31T19:56:36.830Z,3.85
2022-10-31T19:59:04.076Z,4.20
2022-10-31T20:01:30.852Z,4.30
2022-10-31T20:03:57.313Z,4.65
2022-10-31T20:06:27.045Z,4.32
2022-10-31T20:08:55.611Z,4.78
2022-10-31T20:11:22.686Z,4.10
2022-10-31T20:13:49.272Z,4.43
2022-10-31T20:16:15.984Z,4.03
2022-10-31T20:18:42.992Z,3.85
2022-10-31T20:21:13.817Z,4.28
2022-10-31T20:23:40.769Z,4.43
2022-10-31T20:26:08.996Z,4.28
2022-10-31T20:28:39.966Z,4.57
2022-10-31T20:31:14.666Z,4.70
2022-10-31T20:33:41.002Z,3.50
2022-10-31T20:36:07.986Z,3.70
2022-10-31T20:38:34.830Z,3.72
2022-10-31T20:41:02.379Z,4.00
2022-10-31T20:43:28.990Z,4.07
2022-10-31T20:46:07.621Z,4.55
2022-10-31T20:48:34.125Z,3.78
2022-10-31T20:51:01.250Z,3.97
2022-10-31T20:53:27.898Z,4.28
2022-10-31T20:56:06.750Z,4.35
2022-10-31T20:58:34.481Z,3.72
2022-10-31T21:01:01.081Z,3.45
2022-10-31T21:03:28.118Z,3.70
2022-10-31T21:05:56.223Z,3.65
2022-10-31T21:08:22.937Z,3.75
2022-10-31T21:10:49.709Z,3.90
2022-10-31T21:13:16.401Z,3.70
2022-10-31T21:15:42.935Z,3.40
2022-10-31T21:18:09.693Z,3.53
2022-10-31T21:20:39.162Z,3.92
2022-10-31T21:23:05.535Z,3.85
2022-10-31T21:25:31.919Z,4.05
2022-10-31T21:27:58.459Z,4.03
2022-10-31T21:30:25.255Z,3.58
2022-10-31T21:32:51.581Z,4.10
2022-10-31T21:35:17.958Z,3.95
2022-10-31T21:37:44.402Z,3.47
2022-10-31T21:40:10.948Z,3.45
2022-10-31T21:42:37.275Z,3.60
2022-10-31T21:45:03.773Z,3.92
2022-10-31T21:47:30.089Z,4.18
2022-10-31T21:49:56.381Z,3.30
2022-10-31T21:52:22.706Z,4.00
2022-10-31T21:54:48.999Z,4.55
2022-10-31T21:57:15.351Z,4.25
2022-10-31T21:59:45.735Z,4.32
2022-10-31T22:02:12.649Z,4.50
2022-10-31T22:04:41.128Z,3.92
2022-10-31T22:07:07.937Z,4.07
2022-10-31T22:09:34.419Z,4.00
2022-10-31T22:12:02.364Z,3.65
2022-10-31T22:14:28.731Z,4.13
2022-10-31T22:16:55.114Z,4.50
2022-10-31T22:19:21.448Z,3.92
2022-10-31T22:21:48.921Z,3.60
2022-10-31T22:24:16.297Z,3.85
2022-10-31T22:26:43.133Z,3.55
2022-10-31T22:29:10.920Z,4.05
2022-10-31T22:31:38.345Z,3.63
2022-10-31T22:34:04.702Z,3.60
2022-10-31T22:36:31.358Z,3.92
2022-10-31T22:38:58.349Z,4.78
2022-10-31T22:41:26.250Z,3.80
2022-10-31T22:43:53.381Z,3.55
2022-10-31T22:46:21.078Z,4.25
2022-10-31T22:48:49.118Z,4.53
2022-10-31T22:51:16.905Z,3.92
2022-10-31T22:53:43.847Z,4.95
2022-10-31T22:56:11.600Z,4.25
2022-10-31T22:58:38.137Z,4.45
2022-10-31T23:01:08.472Z,3.90
2022-10-31T23:03:36.239Z,4.50
2022-10-31T23:06:03.206Z,4.43
2022-10-31T23:08:30.370Z,4.25
2022-10-31T23:10:56.952Z,3.47
2022-10-31T23:13:41.804Z,5.03
2022-10-31T23:16:08.920Z,4.55
2022-10-31T23:18:49.550Z,4.63
2022-10-31T23:21:36.946Z,4.28
2022-10-31T23:24:03.382Z,4.70
2022-10-31T23:26:48.678Z,4.25
2022-10-31T23:29:14.997Z,4.03
2022-10-31T23:31:41.309Z,3.90
2022-10-31T23:34:07.598Z,4.03
2022-10-31T23:36:33.927Z,4.18
2022-10-31T23:39:00.327Z,3.92
2022-10-31T23:41:26.720Z,3.55
2022-10-31T23:43:53.168Z,4.15
2022-10-31T23:46:19.500Z,3.05
2022-10-31T23:48:48.128Z,3.92
2022-10-31T23:51:15.005Z,3.78
2022-10-31T23:53:43.856Z,4.70
2022-10-31T23:56:10.189Z,4.00
2022-10-31T23:58:36.633Z,4.35
